sensor_id;sensor_type;location;lat;lon;timestamp;P1;durP1;ratioP1;P2;durP2;ratioP2
25015;SDS011;13029;46.286;7.488;2022-08-01T00:00:20;1.52;;;1.42;;
25015;SDS011;13029;46.286;7.488;2022-08-01T00:02:45;4.32;;;1.40;;
25015;SDS011;13029;46.286;7.488;2022-08-01T00:05:10;4.93;;;1.60;;
25015;SDS011;13029;46.286;7.488;2022-08-01T00:07:36;2.72;;;1.45;;
25015;SDS011;13029;46.286;7.488;2022-08-01T00:10:05;3.05;;;1.40;;
25015;SDS011;13029;46.286;7.488;2022-08-01T00:12:33;2.25;;;1.50;;
25015;SDS011;13029;46.286;7.488;2022-08-01T00:14:58;2.65;;;1.50;;
25015;SDS011;13029;46.286;7.488;2022-08-01T00:17:23;2.42;;;1.50;;
25015;SDS011;13029;46.286;7.488;2022-08-01T00:19:49;4.15;;;1.88;;
25015;SDS011;13029;46.286;7.488;2022-08-01T00:22:14;2.00;;;1.58;;
25015;SDS011;13029;46.286;7.488;2022-08-01T00:24:39;1.50;;;1.40;;
25015;SDS011;13029;46.286;7.488;2022-08-01T00:27:05;1.70;;;1.50;;
25015;SDS011;13029;46.286;7.488;2022-08-01T00:29:30;1.83;;;1.52;;
25015;SDS011;13029;46.286;7.488;2022-08-01T00:31:55;3.15;;;1.40;;
25015;SDS011;13029;46.286;7.488;2022-08-01T00:34:21;1.40;;;1.30;;
25015;SDS011;13029;46.286;7.488;2022-08-01T00:36:46;3.65;;;1.80;;
25015;SDS011;13029;46.286;7.488;2022-08-01T00:39:12;2.63;;;1.63;;
25015;SDS011;13029;46.286;7.488;2022-08-01T00:41:37;3.60;;;1.40;;
25015;SDS011;13029;46.286;7.488;2022-08-01T00:44:06;3.85;;;1.67;;
25015;SDS011;13029;46.286;7.488;2022-08-01T00:46:31;3.80;;;1.65;;
25015;SDS011;13029;46.286;7.488;2022-08-01T00:48:57;3.88;;;1.60;;
25015;SDS011;13029;46.286;7.488;2022-08-01T00:51:24;1.85;;;1.38;;
25015;SDS011;13029;46.286;7.488;2022-08-01T00:53:50;2.33;;;1.45;;
25015;SDS011;13029;46.286;7.488;2022-08-01T00:56:16;1.52;;;1.42;;
25015;SDS011;13029;46.286;7.488;2022-08-01T00:58:42;2.78;;;1.52;;
25015;SDS011;13029;46.286;7.488;2022-08-01T01:01:07;1.67;;;1.50;;
25015;SDS011;13029;46.286;7.488;2022-08-01T01:03:33;2.40;;;1.30;;
25015;SDS011;13029;46.286;7.488;2022-08-01T01:08:38;2.83;;;1.60;;
25015;SDS011;13029;46.286;7.488;2022-08-01T01:11:09;3.30;;;1.52;;
25015;SDS011;13029;46.286;7.488;2022-08-01T01:13:50;2.72;;;1.50;;
25015;SDS011;13029;46.286;7.488;2022-08-01T01:16:18;4.13;;;1.55;;
25015;SDS011;13029;46.286;7.488;2022-08-01T01:18:49;1.52;;;1.42;;
25015;SDS011;13029;46.286;7.488;2022-08-01T01:26:36;2.47;;;1.70;;
25015;SDS011;13029;46.286;7.488;2022-08-01T01:29:21;3.80;;;1.80;;
25015;SDS011;13029;46.286;7.488;2022-08-01T01:34:38;3.80;;;1.60;;
25015;SDS011;13029;46.286;7.488;2022-08-01T01:37:06;3.72;;;1.98;;
25015;SDS011;13029;46.286;7.488;2022-08-01T01:39:34;2.30;;;1.70;;
25015;SDS011;13029;46.286;7.488;2022-08-01T01:42:00;1.75;;;1.50;;
25015;SDS011;13029;46.286;7.488;2022-08-01T01:44:26;1.95;;;1.70;;
25015;SDS011;13029;46.286;7.488;2022-08-01T01:46:52;2.85;;;1.70;;
25015;SDS011;13029;46.286;7.488;2022-08-01T01:49:19;4.88;;;1.65;;
25015;SDS011;13029;46.286;7.488;2022-08-01T01:51:49;3.97;;;1.80;;
25015;SDS011;13029;46.286;7.488;2022-08-01T01:54:15;4.18;;;1.60;;
25015;SDS011;13029;46.286;7.488;2022-08-01T01:56:41;5.43;;;1.95;;
25015;SDS011;13029;46.286;7.488;2022-08-01T01:59:20;2.45;;;1.70;;
25015;SDS011;13029;46.286;7.488;2022-08-01T02:04:14;5.13;;;1.67;;
25015;SDS011;13029;46.286;7.488;2022-08-01T02:06:41;3.97;;;1.98;;
25015;SDS011;13029;46.286;7.488;2022-08-01T02:09:07;3.67;;;1.65;;
25015;SDS011;13029;46.286;7.488;2022-08-01T02:11:33;3.67;;;1.83;;
25015;SDS011;13029;46.286;7.488;2022-08-01T02:14:03;4.25;;;1.60;;
25015;SDS011;13029;46.286;7.488;2022-08-01T02:16:31;2.80;;;1.52;;
25015;SDS011;13029;46.286;7.488;2022-08-01T02:18:59;2.83;;;1.80;;
25015;SDS011;13029;46.286;7.488;2022-08-01T02:21:27;2.58;;;1.70;;
25015;SDS011;13029;46.286;7.488;2022-08-01T02:23:53;2.92;;;2.00;;
25015;SDS011;13029;46.286;7.488;2022-08-01T02:26:19;2.72;;;1.88;;
25015;SDS011;13029;46.286;7.488;2022-08-01T02:31:21;1.52;;;1.42;;
25015;SDS011;13029;46.286;7.488;2022-08-01T02:34:01;2.67;;;1.90;;
25015;SDS011;13029;46.286;7.488;2022-08-01T02:36:28;2.70;;;1.75;;
25015;SDS011;13029;46.286;7.488;2022-08-01T02:38:55;2.00;;;1.80;;
25015;SDS011;13029;46.286;7.488;2022-08-01T02:41:22;2.03;;;1.70;;
25015;SDS011;13029;46.286;7.488;2022-08-01T02:43:49;2.70;;;1.55;;
25015;SDS011;13029;46.286;7.488;2022-08-01T02:46:21;3.08;;;1.52;;
25015;SDS011;13029;46.286;7.488;2022-08-01T02:48:51;2.55;;;1.67;;
25015;SDS011;13029;46.286;7.488;2022-08-01T02:51:17;4.07;;;1.75;;
25015;SDS011;13029;46.286;7.488;2022-08-01T02:53:43;2.90;;;1.75;;
25015;SDS011;13029;46.286;7.488;2022-08-01T02:56:10;5.78;;;2.08;;
25015;SDS011;13029;46.286;7.488;2022-08-01T02:58:36;1.95;;;1.77;;
25015;SDS011;13029;46.286;7.488;2022-08-01T03:01:06;2.05;;;1.75;;
25015;SDS011;13029;46.286;7.488;2022-08-01T03:03:32;3.03;;;1.95;;
25015;SDS011;13029;46.286;7.488;2022-08-01T03:05:58;3.28;;;2.35;;
25015;SDS011;13029;46.286;7.488;2022-08-01T03:08:24;2.30;;;1.90;;
25015;SDS011;13029;46.286;7.488;2022-08-01T03:10:50;5.03;;;2.28;;
25015;SDS011;13029;46.286;7.488;2022-08-01T03:13:16;4.03;;;2.05;;
25015;SDS011;13029;46.286;7.488;2022-08-01T03:15:43;2.90;;;1.67;;
25015;SDS011;13029;46.286;7.488;2022-08-01T03:18:09;2.20;;;2.00;;
25015;SDS011;13029;46.286;7.488;2022-08-01T03:20:35;1.80;;;1.63;;
25015;SDS011;13029;46.286;7.488;2022-08-01T03:23:05;5.82;;;2.10;;
25015;SDS011;13029;46.286;7.488;2022-08-01T03:25:31;3.90;;;1.92;;
25015;SDS011;13029;46.286;7.488;2022-08-01T03:27:58;4.72;;;1.80;;
25015;SDS011;13029;46.286;7.488;2022-08-01T03:30:25;3.05;;;1.60;;
25015;SDS011;13029;46.286;7.488;2022-08-01T03:32:51;5.20;;;1.70;;
25015;SDS011;13029;46.286;7.488;2022-08-01T03:35:17;2.95;;;1.83;;
25015;SDS011;13029;46.286;7.488;2022-08-01T03:37:46;4.65;;;1.80;;
25015;SDS011;13029;46.286;7.488;2022-08-01T03:42:55;2.08;;;1.85;;
25015;SDS011;13029;46.286;7.488;2022-08-01T03:45:24;3.60;;;1.80;;
25015;SDS011;13029;46.286;7.488;2022-08-01T03:47:52;1.63;;;1.50;;
25015;SDS011;13029;46.286;7.488;2022-08-01T03:50:22;3.50;;;1.80;;
25015;SDS011;13029;46.286;7.488;2022-08-01T03:52:49;2.85;;;1.60;;
25015;SDS011;13029;46.286;7.488;2022-08-01T03:55:15;7.85;;;2.17;;
25015;SDS011;13029;46.286;7.488;2022-08-01T03:57:44;4.80;;;1.95;;
25015;SDS011;13029;46.286;7.488;2022-08-01T04:00:10;4.00;;;1.88;;
25015;SDS011;13029;46.286;7.488;2022-08-01T04:02:36;3.10;;;1.80;;
25015;SDS011;13029;46.286;7.488;2022-08-01T04:05:02;3.75;;;1.70;;
25015;SDS011;13029;46.286;7.488;2022-08-01T04:07:33;2.33;;;1.70;;
25015;SDS011;13029;46.286;7.488;2022-08-01T04:10:04;2.72;;;1.50;;
25015;SDS011;13029;46.286;7.488;2022-08-01T04:12:30;2.55;;;1.77;;
25015;SDS011;13029;46.286;7.488;2022-08-01T04:14:55;2.13;;;1.80;;
25015;SDS011;13029;46.286;7.488;2022-08-01T04:17:20;4.10;;;1.90;;
25015;SDS011;13029;46.286;7.488;2022-08-01T04:19:46;3.75;;;1.83;;
25015;SDS011;13029;46.286;7.488;2022-08-01T04:22:11;2.08;;;1.65;;
25015;SDS011;13029;46.286;7.488;2022-08-01T04:24:38;2.78;;;1.70;;
25015;SDS011;13029;46.286;7.488;2022-08-01T04:27:05;2.83;;;1.92;;
25015;SDS011;13029;46.286;7.488;2022-08-01T04:29:32;2.20;;;2.00;;
25015;SDS011;13029;46.286;7.488;2022-08-01T04:31:59;3.10;;;1.90;;
25015;SDS011;13029;46.286;7.488;2022-08-01T04:34:25;2.35;;;1.98;;
25015;SDS011;13029;46.286;7.488;2022-08-01T04:36:54;4.80;;;2.08;;
25015;SDS011;13029;46.286;7.488;2022-08-01T04:39:20;5.47;;;2.20;;
25015;SDS011;13029;46.286;7.488;2022-08-01T04:41:48;5.93;;;1.88;;
25015;SDS011;13029;46.286;7.488;2022-08-01T04:44:15;4.05;;;2.10;;
25015;SDS011;13029;46.286;7.488;2022-08-01T04:46:41;3.33;;;2.15;;
25015;SDS011;13029;46.286;7.488;2022-08-01T04:49:07;2.35;;;1.90;;
25015;SDS011;13029;46.286;7.488;2022-08-01T04:51:34;4.78;;;2.08;;
25015;SDS011;13029;46.286;7.488;2022-08-01T04:53:59;4.03;;;2.03;;
25015;SDS011;13029;46.286;7.488;2022-08-01T04:56:26;3.13;;;1.85;;
25015;SDS011;13029;46.286;7.488;2022-08-01T04:58:51;2.00;;;1.90;;
25015;SDS011;13029;46.286;7.488;2022-08-01T05:01:36;3.00;;;2.00;;
25015;SDS011;13029;46.286;7.488;2022-08-01T05:04:02;3.75;;;2.20;;
25015;SDS011;13029;46.286;7.488;2022-08-01T05:06:27;3.40;;;1.80;;
25015;SDS011;13029;46.286;7.488;2022-08-01T05:08:52;3.72;;;2.00;;
25015;SDS011;13029;46.286;7.488;2022-08-01T05:11:18;2.75;;;1.70;;
25015;SDS011;13029;46.286;7.488;2022-08-01T05:13:43;2.20;;;1.92;;
25015;SDS011;13029;46.286;7.488;2022-08-01T05:16:08;1.90;;;1.70;;
25015;SDS011;13029;46.286;7.488;2022-08-01T05:18:33;2.15;;;1.90;;
25015;SDS011;13029;46.286;7.488;2022-08-01T05:20:59;2.75;;;1.90;;
25015;SDS011;13029;46.286;7.488;2022-08-01T05:23:24;2.88;;;1.83;;
25015;SDS011;13029;46.286;7.488;2022-08-01T05:25:49;2.90;;;1.98;;
25015;SDS011;13029;46.286;7.488;2022-08-01T05:28:15;3.83;;;2.10;;
25015;SDS011;13029;46.286;7.488;2022-08-01T05:30:40;3.67;;;1.55;;
25015;SDS011;13029;46.286;7.488;2022-08-01T05:33:05;4.30;;;2.00;;
25015;SDS011;13029;46.286;7.488;2022-08-01T05:35:31;2.13;;;1.58;;
25015;SDS011;13029;46.286;7.488;2022-08-01T05:37:56;2.10;;;1.60;;
25015;SDS011;13029;46.286;7.488;2022-08-01T05:40:21;2.22;;;1.63;;
25015;SDS011;13029;46.286;7.488;2022-08-01T05:42:47;7.38;;;1.92;;
25015;SDS011;13029;46.286;7.488;2022-08-01T05:45:12;1.95;;;1.65;;
25015;SDS011;13029;46.286;7.488;2022-08-01T05:47:37;3.97;;;1.90;;
25015;SDS011;13029;46.286;7.488;2022-08-01T05:50:03;1.92;;;1.60;;
25015;SDS011;13029;46.286;7.488;2022-08-01T05:52:28;2.92;;;1.60;;
25015;SDS011;13029;46.286;7.488;2022-08-01T05:54:54;2.05;;;1.58;;
25015;SDS011;13029;46.286;7.488;2022-08-01T05:57:19;1.95;;;1.65;;
25015;SDS011;13029;46.286;7.488;2022-08-01T05:59:44;3.67;;;1.70;;
25015;SDS011;13029;46.286;7.488;2022-08-01T06:02:10;2.20;;;1.60;;
25015;SDS011;13029;46.286;7.488;2022-08-01T06:04:35;2.08;;;1.42;;
25015;SDS011;13029;46.286;7.488;2022-08-01T06:07:00;2.10;;;1.80;;
25015;SDS011;13029;46.286;7.488;2022-08-01T06:09:26;2.00;;;1.80;;
25015;SDS011;13029;46.286;7.488;2022-08-01T06:11:51;8.20;;;1.70;;
25015;SDS011;13029;46.286;7.488;2022-08-01T06:14:16;2.20;;;2.00;;
25015;SDS011;13029;46.286;7.488;2022-08-01T06:16:41;1.90;;;1.70;;
25015;SDS011;13029;46.286;7.488;2022-08-01T06:19:07;3.15;;;1.42;;
25015;SDS011;13029;46.286;7.488;2022-08-01T06:21:32;3.25;;;1.90;;
25015;SDS011;13029;46.286;7.488;2022-08-01T06:23:58;4.40;;;1.65;;
25015;SDS011;13029;46.286;7.488;2022-08-01T06:26:23;3.70;;;1.55;;
25015;SDS011;13029;46.286;7.488;2022-08-01T06:28:48;3.28;;;1.35;;
25015;SDS011;13029;46.286;7.488;2022-08-01T06:31:13;7.05;;;1.98;;
25015;SDS011;13029;46.286;7.488;2022-08-01T06:33:40;3.63;;;1.55;;
25015;SDS011;13029;46.286;7.488;2022-08-01T06:36:05;1.67;;;1.38;;
25015;SDS011;13029;46.286;7.488;2022-08-01T06:38:31;1.60;;;1.38;;
25015;SDS011;13029;46.286;7.488;2022-08-01T06:40:56;2.80;;;1.67;;
25015;SDS011;13029;46.286;7.488;2022-08-01T06:43:22;1.98;;;1.50;;
25015;SDS011;13029;46.286;7.488;2022-08-01T06:45:47;3.83;;;1.25;;
25015;SDS011;13029;46.286;7.488;2022-08-01T06:48:13;3.47;;;1.50;;
25015;SDS011;13029;46.286;7.488;2022-08-01T06:50:38;3.15;;;1.50;;
25015;SDS011;13029;46.286;7.488;2022-08-01T06:53:04;4.88;;;1.42;;
25015;SDS011;13029;46.286;7.488;2022-08-01T06:55:29;2.67;;;1.55;;
25015;SDS011;13029;46.286;7.488;2022-08-01T06:57:54;3.67;;;1.23;;
25015;SDS011;13029;46.286;7.488;2022-08-01T07:00:21;1.98;;;1.35;;
25015;SDS011;13029;46.286;7.488;2022-08-01T07:02:48;2.35;;;1.48;;
25015;SDS011;13029;46.286;7.488;2022-08-01T07:05:14;2.05;;;1.70;;
25015;SDS011;13029;46.286;7.488;2022-08-01T07:07:39;3.08;;;1.70;;
25015;SDS011;13029;46.286;7.488;2022-08-01T07:10:05;1.45;;;1.35;;
25015;SDS011;13029;46.286;7.488;2022-08-01T07:12:31;4.53;;;1.48;;
25015;SDS011;13029;46.286;7.488;2022-08-01T07:14:58;2.58;;;1.70;;
25015;SDS011;13029;46.286;7.488;2022-08-01T07:17:23;2.42;;;1.70;;
25015;SDS011;13029;46.286;7.488;2022-08-01T07:19:48;1.70;;;1.58;;
25015;SDS011;13029;46.286;7.488;2022-08-01T07:22:14;1.75;;;1.65;;
25015;SDS011;13029;46.286;7.488;2022-08-01T07:24:39;3.83;;;1.70;;
25015;SDS011;13029;46.286;7.488;2022-08-01T07:27:05;6.75;;;1.60;;
25015;SDS011;13029;46.286;7.488;2022-08-01T07:29:30;2.90;;;1.48;;
25015;SDS011;13029;46.286;7.488;2022-08-01T07:31:56;4.03;;;2.20;;
25015;SDS011;13029;46.286;7.488;2022-08-01T07:34:23;4.18;;;1.70;;
25015;SDS011;13029;46.286;7.488;2022-08-01T07:36:49;1.77;;;1.35;;
25015;SDS011;13029;46.286;7.488;2022-08-01T07:39:15;2.55;;;1.50;;
25015;SDS011;13029;46.286;7.488;2022-08-01T07:41:40;3.00;;;1.70;;
25015;SDS011;13029;46.286;7.488;2022-08-01T07:44:05;3.35;;;1.70;;
25015;SDS011;13029;46.286;7.488;2022-08-01T07:46:31;2.90;;;1.60;;
25015;SDS011;13029;46.286;7.488;2022-08-01T07:48:56;3.63;;;1.45;;
25015;SDS011;13029;46.286;7.488;2022-08-01T07:51:21;3.90;;;1.75;;
25015;SDS011;13029;46.286;7.488;2022-08-01T07:53:47;2.83;;;1.50;;
25015;SDS011;13029;46.286;7.488;2022-08-01T07:56:12;2.67;;;1.50;;
25015;SDS011;13029;46.286;7.488;2022-08-01T07:58:38;2.45;;;1.83;;
25015;SDS011;13029;46.286;7.488;2022-08-01T08:01:03;2.58;;;1.90;;
25015;SDS011;13029;46.286;7.488;2022-08-01T08:03:28;4.47;;;1.60;;
25015;SDS011;13029;46.286;7.488;2022-08-01T08:05:54;2.53;;;1.80;;
25015;SDS011;13029;46.286;7.488;2022-08-01T08:08:19;2.63;;;1.48;;
25015;SDS011;13029;46.286;7.488;2022-08-01T08:10:45;2.33;;;1.55;;
25015;SDS011;13029;46.286;7.488;2022-08-01T08:13:10;4.85;;;1.80;;
25015;SDS011;13029;46.286;7.488;2022-08-01T08:15:35;4.10;;;1.60;;
25015;SDS011;13029;46.286;7.488;2022-08-01T08:18:02;4.40;;;1.60;;
25015;SDS011;13029;46.286;7.488;2022-08-01T08:20:28;3.72;;;1.85;;
25015;SDS011;13029;46.286;7.488;2022-08-01T08:22:54;3.65;;;2.13;;
25015;SDS011;13029;46.286;7.488;2022-08-01T08:25:20;2.42;;;1.50;;
25015;SDS011;13029;46.286;7.488;2022-08-01T08:27:46;5.38;;;1.67;;
25015;SDS011;13029;46.286;7.488;2022-08-01T08:30:12;2.75;;;1.63;;
25015;SDS011;13029;46.286;7.488;2022-08-01T08:32:38;2.80;;;1.90;;
25015;SDS011;13029;46.286;7.488;2022-08-01T08:35:04;3.33;;;2.05;;
25015;SDS011;13029;46.286;7.488;2022-08-01T08:37:31;2.78;;;1.95;;
25015;SDS011;13029;46.286;7.488;2022-08-01T08:39:56;4.45;;;2.00;;
25015;SDS011;13029;46.286;7.488;2022-08-01T08:42:22;4.38;;;1.65;;
25015;SDS011;13029;46.286;7.488;2022-08-01T08:44:47;3.15;;;1.70;;
25015;SDS011;13029;46.286;7.488;2022-08-01T08:47:13;4.18;;;1.60;;
25015;SDS011;13029;46.286;7.488;2022-08-01T08:49:39;2.55;;;1.90;;
25015;SDS011;13029;46.286;7.488;2022-08-01T08:52:07;2.60;;;1.80;;
25015;SDS011;13029;46.286;7.488;2022-08-01T08:54:34;4.68;;;1.45;;
25015;SDS011;13029;46.286;7.488;2022-08-01T08:57:00;1.65;;;1.40;;
25015;SDS011;13029;46.286;7.488;2022-08-01T08:59:26;2.20;;;1.35;;
25015;SDS011;13029;46.286;7.488;2022-08-01T09:01:53;1.58;;;1.35;;
25015;SDS011;13029;46.286;7.488;2022-08-01T09:04:19;2.20;;;2.00;;
25015;SDS011;13029;46.286;7.488;2022-08-01T09:06:47;2.88;;;1.65;;
25015;SDS011;13029;46.286;7.488;2022-08-01T09:09:12;3.22;;;1.70;;
25015;SDS011;13029;46.286;7.488;2022-08-01T09:11:38;1.85;;;1.50;;
25015;SDS011;13029;46.286;7.488;2022-08-01T09:16:35;2.97;;;1.70;;
25015;SDS011;13029;46.286;7.488;2022-08-01T09:19:14;4.18;;;1.73;;
25015;SDS011;13029;46.286;7.488;2022-08-01T09:22:02;2.92;;;1.70;;
25015;SDS011;13029;46.286;7.488;2022-08-01T09:24:28;2.40;;;1.85;;
25015;SDS011;13029;46.286;7.488;2022-08-01T09:26:54;3.17;;;1.60;;
25015;SDS011;13029;46.286;7.488;2022-08-01T09:29:21;3.22;;;1.80;;
25015;SDS011;13029;46.286;7.488;2022-08-01T09:31:51;3.05;;;1.70;;
25015;SDS011;13029;46.286;7.488;2022-08-01T09:34:23;2.10;;;1.80;;
25015;SDS011;13029;46.286;7.488;2022-08-01T09:36:51;1.83;;;1.65;;
25015;SDS011;13029;46.286;7.488;2022-08-01T09:39:27;3.70;;;1.80;;
25015;SDS011;13029;46.286;7.488;2022-08-01T09:41:59;1.90;;;1.67;;
25015;SDS011;13029;46.286;7.488;2022-08-01T09:44:38;4.13;;;1.80;;
25015;SDS011;13029;46.286;7.488;2022-08-01T09:47:09;2.83;;;1.83;;
25015;SDS011;13029;46.286;7.488;2022-08-01T09:49:36;1.80;;;1.70;;
25015;SDS011;13029;46.286;7.488;2022-08-01T09:52:15;2.20;;;1.50;;
25015;SDS011;13029;46.286;7.488;2022-08-01T09:54:52;2.53;;;1.80;;
25015;SDS011;13029;46.286;7.488;2022-08-01T09:57:20;2.38;;;1.75;;
25015;SDS011;13029;46.286;7.488;2022-08-01T09:59:46;3.15;;;1.60;;
25015;SDS011;13029;46.286;7.488;2022-08-01T10:02:14;4.22;;;1.52;;
25015;SDS011;13029;46.286;7.488;2022-08-01T10:04:54;2.70;;;1.70;;
25015;SDS011;13029;46.286;7.488;2022-08-01T10:07:20;4.75;;;1.88;;
25015;SDS011;13029;46.286;7.488;2022-08-01T10:09:46;3.67;;;1.90;;
25015;SDS011;13029;46.286;7.488;2022-08-01T10:12:16;1.90;;;1.40;;
25015;SDS011;13029;46.286;7.488;2022-08-01T10:14:44;6.00;;;1.80;;
25015;SDS011;13029;46.286;7.488;2022-08-01T10:17:14;3.47;;;1.85;;
25015;SDS011;13029;46.286;7.488;2022-08-01T10:19:41;2.28;;;1.70;;
25015;SDS011;13029;46.286;7.488;2022-08-01T10:22:08;4.43;;;1.83;;
25015;SDS011;13029;46.286;7.488;2022-08-01T10:24:35;1.85;;;1.70;;
25015;SDS011;13029;46.286;7.488;2022-08-01T10:27:03;1.65;;;1.52;;
25015;SDS011;13029;46.286;7.488;2022-08-01T10:29:31;3.65;;;1.70;;
25015;SDS011;13029;46.286;7.488;2022-08-01T10:32:02;5.30;;;1.50;;
25015;SDS011;13029;46.286;7.488;2022-08-01T10:34:29;2.33;;;1.52;;
25015;SDS011;13029;46.286;7.488;2022-08-01T10:36:55;2.00;;;1.58;;
25015;SDS011;13029;46.286;7.488;2022-08-01T10:39:20;2.22;;;1.60;;
25015;SDS011;13029;46.286;7.488;2022-08-01T10:41:46;4.45;;;1.60;;
25015;SDS011;13029;46.286;7.488;2022-08-01T10:44:11;2.78;;;2.00;;
25015;SDS011;13029;46.286;7.488;2022-08-01T10:46:37;2.10;;;1.67;;
25015;SDS011;13029;46.286;7.488;2022-08-01T10:51:37;5.32;;;1.50;;
25015;SDS011;13029;46.286;7.488;2022-08-01T10:56:39;3.03;;;1.40;;
25015;SDS011;13029;46.286;7.488;2022-08-01T10:59:08;4.43;;;1.70;;
25015;SDS011;13029;46.286;7.488;2022-08-01T11:01:34;1.95;;;1.63;;
25015;SDS011;13029;46.286;7.488;2022-08-01T11:06:36;2.50;;;1.50;;
25015;SDS011;13029;46.286;7.488;2022-08-01T11:09:05;2.65;;;1.70;;
25015;SDS011;13029;46.286;7.488;2022-08-01T11:14:33;2.00;;;1.38;;
25015;SDS011;13029;46.286;7.488;2022-08-01T11:20:06;3.10;;;1.50;;
25015;SDS011;13029;46.286;7.488;2022-08-01T11:23:24;2.75;;;1.30;;
25015;SDS011;13029;46.286;7.488;2022-08-01T11:30:38;3.92;;;1.83;;
25015;SDS011;13029;46.286;7.488;2022-08-01T11:33:03;1.50;;;1.27;;
25015;SDS011;13029;46.286;7.488;2022-08-01T11:35:30;2.17;;;1.33;;
25015;SDS011;13029;46.286;7.488;2022-08-01T11:37:56;1.98;;;1.13;;
25015;SDS011;13029;46.286;7.488;2022-08-01T11:40:22;1.63;;;1.20;;
25015;SDS011;13029;46.286;7.488;2022-08-01T11:42:50;2.35;;;1.05;;
25015;SDS011;13029;46.286;7.488;2022-08-01T11:45:47;1.65;;;1.10;;
25015;SDS011;13029;46.286;7.488;2022-08-01T11:48:19;2.88;;;1.30;;
25015;SDS011;13029;46.286;7.488;2022-08-01T11:50:46;1.40;;;1.00;;
25015;SDS011;13029;46.286;7.488;2022-08-01T11:53:11;1.67;;;1.58;;
25015;SDS011;13029;46.286;7.488;2022-08-01T11:55:43;2.05;;;1.30;;
25015;SDS011;13029;46.286;7.488;2022-08-01T11:58:11;2.65;;;1.13;;
25015;SDS011;13029;46.286;7.488;2022-08-01T12:00:36;2.33;;;1.20;;
25015;SDS011;13029;46.286;7.488;2022-08-01T12:03:05;4.20;;;1.20;;
25015;SDS011;13029;46.286;7.488;2022-08-01T12:05:32;2.13;;;1.38;;
25015;SDS011;13029;46.286;7.488;2022-08-01T12:07:59;1.77;;;1.20;;
25015;SDS011;13029;46.286;7.488;2022-08-01T12:10:26;2.47;;;1.15;;
25015;SDS011;13029;46.286;7.488;2022-08-01T12:13:00;4.35;;;1.27;;
25015;SDS011;13029;46.286;7.488;2022-08-01T12:15:29;2.63;;;1.27;;
25015;SDS011;13029;46.286;7.488;2022-08-01T12:17:56;2.55;;;1.35;;
25015;SDS011;13029;46.286;7.488;2022-08-01T12:20:23;5.13;;;1.33;;
25015;SDS011;13029;46.286;7.488;2022-08-01T12:22:55;1.63;;;1.17;;
25015;SDS011;13029;46.286;7.488;2022-08-01T12:25:22;2.95;;;1.20;;
25015;SDS011;13029;46.286;7.488;2022-08-01T12:27:48;2.92;;;1.30;;
25015;SDS011;13029;46.286;7.488;2022-08-01T12:30:15;1.05;;;0.93;;
25015;SDS011;13029;46.286;7.488;2022-08-01T12:32:42;4.18;;;1.33;;
25015;SDS011;13029;46.286;7.488;2022-08-01T12:35:10;2.10;;;1.27;;
25015;SDS011;13029;46.286;7.488;2022-08-01T12:37:42;1.33;;;1.08;;
25015;SDS011;13029;46.286;7.488;2022-08-01T12:40:13;1.25;;;1.15;;
25015;SDS011;13029;46.286;7.488;2022-08-01T12:42:44;4.05;;;1.15;;
25015;SDS011;13029;46.286;7.488;2022-08-01T12:45:15;2.78;;;1.00;;
25015;SDS011;13029;46.286;7.488;2022-08-01T12:47:41;1.83;;;1.27;;
25015;SDS011;13029;46.286;7.488;2022-08-01T12:50:08;2.92;;;1.25;;
25015;SDS011;13029;46.286;7.488;2022-08-01T12:52:44;2.25;;;1.48;;
25015;SDS011;13029;46.286;7.488;2022-08-01T12:55:16;2.15;;;1.50;;
25015;SDS011;13029;46.286;7.488;2022-08-01T12:58:04;1.70;;;1.00;;
25015;SDS011;13029;46.286;7.488;2022-08-01T13:00:34;3.38;;;1.20;;
25015;SDS011;13029;46.286;7.488;2022-08-01T13:08:16;1.52;;;0.95;;
25015;SDS011;13029;46.286;7.488;2022-08-01T13:10:43;1.05;;;0.95;;
25015;SDS011;13029;46.286;7.488;2022-08-01T13:13:09;3.75;;;1.10;;
25015;SDS011;13029;46.286;7.488;2022-08-01T13:15:35;1.17;;;0.95;;
25015;SDS011;13029;46.286;7.488;2022-08-01T13:18:46;4.18;;;1.23;;
25015;SDS011;13029;46.286;7.488;2022-08-01T13:21:07;3.75;;;1.20;;
25015;SDS011;13029;46.286;7.488;2022-08-01T13:23:33;1.42;;;0.85;;
25015;SDS011;13029;46.286;7.488;2022-08-01T13:25:58;3.10;;;1.05;;
25015;SDS011;13029;46.286;7.488;2022-08-01T13:28:24;3.53;;;0.90;;
25015;SDS011;13029;46.286;7.488;2022-08-01T13:33:24;3.88;;;0.82;;
25015;SDS011;13029;46.286;7.488;2022-08-01T13:35:52;1.75;;;1.00;;
25015;SDS011;13029;46.286;7.488;2022-08-01T13:38:18;3.17;;;1.08;;
25015;SDS011;13029;46.286;7.488;2022-08-01T13:40:44;2.70;;;1.20;;
25015;SDS011;13029;46.286;7.488;2022-08-01T13:43:09;3.28;;;1.05;;
25015;SDS011;13029;46.286;7.488;2022-08-01T13:45:35;1.45;;;0.90;;
25015;SDS011;13029;46.286;7.488;2022-08-01T13:48:00;2.55;;;1.10;;
25015;SDS011;13029;46.286;7.488;2022-08-01T13:50:26;3.20;;;0.90;;
25015;SDS011;13029;46.286;7.488;2022-08-01T13:52:52;1.25;;;1.02;;
25015;SDS011;13029;46.286;7.488;2022-08-01T13:55:17;2.35;;;1.10;;
25015;SDS011;13029;46.286;7.488;2022-08-01T13:57:43;1.45;;;1.10;;
25015;SDS011;13029;46.286;7.488;2022-08-01T14:00:08;3.90;;;1.35;;
25015;SDS011;13029;46.286;7.488;2022-08-01T14:02:34;3.10;;;1.10;;
25015;SDS011;13029;46.286;7.488;2022-08-01T14:05:00;0.85;;;0.85;;
25015;SDS011;13029;46.286;7.488;2022-08-01T14:07:26;6.68;;;1.40;;
25015;SDS011;13029;46.286;7.488;2022-08-01T14:09:52;1.50;;;1.10;;
25015;SDS011;13029;46.286;7.488;2022-08-01T14:12:17;1.40;;;0.90;;
25015;SDS011;13029;46.286;7.488;2022-08-01T14:14:42;7.57;;;1.60;;
25015;SDS011;13029;46.286;7.488;2022-08-01T14:17:08;4.28;;;1.23;;
25015;SDS011;13029;46.286;7.488;2022-08-01T14:19:33;3.10;;;1.10;;
25015;SDS011;13029;46.286;7.488;2022-08-01T14:21:58;4.93;;;1.20;;
25015;SDS011;13029;46.286;7.488;2022-08-01T14:24:24;2.10;;;1.20;;
25015;SDS011;13029;46.286;7.488;2022-08-01T14:26:51;1.13;;;1.00;;
25015;SDS011;13029;46.286;7.488;2022-08-01T14:29:16;1.00;;;0.70;;
25015;SDS011;13029;46.286;7.488;2022-08-01T14:31:41;1.98;;;1.00;;
25015;SDS011;13029;46.286;7.488;2022-08-01T14:34:07;1.35;;;0.93;;
25015;SDS011;13029;46.286;7.488;2022-08-01T14:36:33;2.75;;;0.98;;
25015;SDS011;13029;46.286;7.488;2022-08-01T14:38:58;1.83;;;1.10;;
25015;SDS011;13029;46.286;7.488;2022-08-01T14:41:24;1.58;;;1.10;;
25015;SDS011;13029;46.286;7.488;2022-08-01T14:43:49;1.30;;;1.20;;
25015;SDS011;13029;46.286;7.488;2022-08-01T14:46:14;1.60;;;1.00;;
25015;SDS011;13029;46.286;7.488;2022-08-01T14:48:40;5.00;;;1.02;;
25015;SDS011;13029;46.286;7.488;2022-08-01T14:51:05;1.63;;;1.05;;
25015;SDS011;13029;46.286;7.488;2022-08-01T14:53:32;3.75;;;1.13;;
25015;SDS011;13029;46.286;7.488;2022-08-01T14:55:58;3.55;;;1.10;;
25015;SDS011;13029;46.286;7.488;2022-08-01T14:58:23;2.25;;;0.90;;
25015;SDS011;13029;46.286;7.488;2022-08-01T15:00:48;2.08;;;1.00;;
25015;SDS011;13029;46.286;7.488;2022-08-01T15:03:14;2.25;;;1.10;;
25015;SDS011;13029;46.286;7.488;2022-08-01T15:05:39;2.10;;;1.00;;
25015;SDS011;13029;46.286;7.488;2022-08-01T15:08:08;2.33;;;1.20;;
25015;SDS011;13029;46.286;7.488;2022-08-01T15:10:33;1.85;;;0.88;;
25015;SDS011;13029;46.286;7.488;2022-08-01T15:12:58;0.93;;;0.90;;
25015;SDS011;13029;46.286;7.488;2022-08-01T15:15:25;1.60;;;1.02;;
25015;SDS011;13029;46.286;7.488;2022-08-01T15:17:51;3.63;;;1.30;;
25015;SDS011;13029;46.286;7.488;2022-08-01T15:20:17;2.13;;;1.10;;
25015;SDS011;13029;46.286;7.488;2022-08-01T15:22:43;2.92;;;0.95;;
25015;SDS011;13029;46.286;7.488;2022-08-01T15:25:08;3.50;;;1.40;;
25015;SDS011;13029;46.286;7.488;2022-08-01T15:27:34;5.03;;;1.38;;
25015;SDS011;13029;46.286;7.488;2022-08-01T15:29:59;2.67;;;1.00;;
25015;SDS011;13029;46.286;7.488;2022-08-01T15:32:25;1.13;;;1.02;;
25015;SDS011;13029;46.286;7.488;2022-08-01T15:34:50;3.67;;;1.10;;